Time;durP1;ratioP1;P1;durP2;ratioP2;P2;SDS_P1;SDS_P2;PMS_P1;PMS_P2;Temp;Humidity;BMP_temperature;BMP_pressure;BME280_temperature;BME280_humidity;BME280_pressure;Samples;Min_cycle;Max_cycle;Signal;HPM_P1;HPM_P2
2021/03/28 00:02:34;;;;;;;18.43;4.70;;;5.70;76.60;;;;;;5092359;28;20742;-69
2021/03/28 00:05:26;;;;;;;19.60;3.63;;;5.70;76.60;;;;;;5091198;28;20782;-69
2021/03/28 00:07:56;;;;;;;18.77;4.32;;;5.70;76.80;;;;;;5091940;28;20337;-69
2021/03/28 00:10:28;;;;;;;12.97;4.97;;;5.60;76.70;;;;;;5091468;28;20048;-69
2021/03/28 00:13:01;;;;;;;;;;;5.60;76.70;;;;;;5091395;28;20293;-69
2021/03/28 00:15:31;;;;;;;15.23;3.97;;;5.60;77.10;;;;;;5092217;28;19943;-69
2021/03/28 00:18:21;;;;;;;18.77;6.03;;;5.60;76.80;;;;;;5091056;28;20310;-69
2021/03/28 00:20:49;;;;;;;12.90;3.97;;;5.70;77.00;;;;;;5091547;28;20290;-69
2021/03/28 00:23:28;;;;;;;15.57;4.93;;;5.60;77.00;;;;;;5092117;28;20298;-69
2021/03/28 00:26:02;;;;;;;17.97;4.63;;;5.60;78.10;;;;;;5090599;28;20351;-69
2021/03/28 00:28:40;;;;;;;14.83;4.33;;;5.60;77.50;;;;;;5091930;28;20386;-69
2021/03/28 00:31:17;;;;;;;14.83;4.70;;;5.70;77.60;;;;;;5091721;28;20290;-69
2021/03/28 00:33:56;;;;;;;13.40;4.43;;;5.70;77.70;;;;;;5090843;28;20326;-69
2021/03/28 00:36:31;;;;;;;14.57;3.63;;;5.60;77.50;;;;;;5091980;28;20365;-69
2021/03/28 00:38:58;;;;;;;13.33;4.60;;;5.60;77.80;;;;;;5090647;28;20313;-69
2021/03/28 00:41:40;;;;;;;20.60;4.40;;;5.60;77.90;;;;;;5091967;28;20297;-69
2021/03/28 00:44:20;;;;;;;15.45;4.65;;;5.60;78.20;;;;;;5091348;28;20332;-69
2021/03/28 00:47:04;;;;;;;16.03;4.67;;;5.60;78.30;;;;;;5090554;28;20066;-69
2021/03/28 00:49:37;;;;;;;18.43;5.43;;;5.60;78.50;;;;;;5091896;28;20305;-69
2021/03/28 00:52:15;;;;;;;15.27;4.83;;;5.50;78.50;;;;;;5091494;28;20304;-69
2021/03/28 00:54:58;;;;;;;19.37;4.17;;;5.50;78.70;;;;;;5090676;28;20692;-69
2021/03/28 00:57:36;;;;;;;16.87;4.47;;;5.60;78.80;;;;;;5091556;28;20648;-69
2021/03/28 01:00:20;;;;;;;17.47;5.17;;;5.60;79.00;;;;;;5090351;28;20775;-69
2021/03/28 01:03:03;;;;;;;17.07;4.60;;;5.60;79.00;;;;;;5090897;28;20681;-69
2021/03/28 01:05:51;;;;;;;14.87;4.07;;;5.60;79.40;;;;;;5091473;28;20290;-69
2021/03/28 01:08:34;;;;;;;18.63;4.80;;;5.60;79.40;;;;;;5090837;28;20298;-69
2021/03/28 01:11:12;;;;;;;13.70;4.53;;;5.60;79.50;;;;;;5091234;28;20290;-69
2021/03/28 01:13:57;;;;;;;14.50;4.23;;;5.70;79.70;;;;;;5091130;28;20313;-69
2021/03/28 01:17:08;;;;;;;13.93;4.33;;;5.70;79.80;;;;;;5091274;28;20330;-69
2021/03/28 01:20:04;;;;;;;15.77;4.10;;;5.70;79.90;;;;;;5052712;28;20290;-69
2021/03/28 01:22:48;;;;;;;16.13;5.07;;;5.70;80.20;;;;;;5093206;28;20303;-69
2021/03/28 01:25:25;;;;;;;17.77;4.23;;;5.70;80.50;;;;;;5095417;28;20297;-69
2021/03/28 01:27:53;;;;;;;21.93;4.90;;;5.70;80.50;;;;;;5094726;28;20650;-69
2021/03/28 01:30:40;;;;;;;19.43;5.30;;;5.70;80.50;;;;;;5094652;28;20298;-69
2021/03/28 01:33:14;;;;;;;21.87;5.47;;;5.70;81.20;;;;;;5094688;28;20309;-69
2021/03/28 01:35:49;;;;;;;18.67;4.40;;;5.70;81.10;;;;;;5094392;28;20382;-69
2021/03/28 01:38:57;;;;;;;16.80;4.87;;;5.70;81.10;;;;;;5095091;28;20355;-69
2021/03/28 01:41:30;;;;;;;18.17;5.23;;;5.80;81.80;;;;;;5046594;28;20298;-69
2021/03/28 01:43:58;;;;;;;17.23;5.00;;;5.70;81.40;;;;;;5093659;28;20305;-69
2021/03/28 01:47:02;;;;;;;11.97;4.83;;;5.70;82.00;;;;;;5095145;28;20321;-69
2021/03/28 01:49:55;;;;;;;14.43;4.83;;;5.70;82.70;;;;;;5094122;28;20488;-69
2021/03/28 01:52:45;;;;;;;19.27;5.47;;;5.70;82.40;;;;;;5094962;28;20294;-69
2021/03/28 01:55:25;;;;;;;18.83;4.93;;;5.80;82.30;;;;;;5094616;28;20345;-69
2021/03/28 01:58:07;;;;;;;18.07;5.10;;;5.80;82.60;;;;;;5093355;28;20302;-69
2021/03/28 02:00:41;;;;;;;21.57;5.67;;;5.80;82.50;;;;;;5094565;28;20294;-69
2021/03/28 02:03:30;;;;;;;18.75;5.10;;;5.80;82.70;;;;;;5093928;28;20299;-69
2021/03/28 02:06:25;;;;;;;22.50;5.97;;;5.80;82.60;;;;;;5094279;28;20075;-69
2021/03/28 02:09:16;;;;;;;16.33;4.60;;;5.90;82.90;;;;;;5094130;28;20310;-69
2021/03/28 02:12:07;;;;;;;19.03;3.93;;;5.90;82.80;;;;;;5093572;28;20654;-69
2021/03/28 02:15:04;;;;;;;18.27;4.35;;;5.90;83.00;;;;;;5094159;28;20314;-69
2021/03/28 02:18:15;;;;;;;21.27;5.07;;;6.00;82.80;;;;;;5093888;28;20147;-69
2021/03/28 02:20:53;;;;;;;16.20;4.70;;;6.00;82.90;;;;;;5094114;28;20298;-69
2021/03/28 02:23:31;;;;;;;16.70;6.60;;;6.10;82.50;;;;;;5094461;28;20366;-69
2021/03/28 02:26:24;;;;;;;17.40;5.27;;;6.10;82.70;;;;;;5093094;28;20782;-69
2021/03/28 02:29:35;;;;;;;17.10;5.07;;;6.00;82.90;;;;;;5093545;28;20725;-69
2021/03/28 02:32:17;;;;;;;17.37;5.00;;;6.00;82.80;;;;;;5088137;28;20373;-69
2021/03/28 02:35:02;;;;;;;17.83;4.32;;;6.00;82.90;;;;;;5092830;28;20813;-69
2021/03/28 02:37:44;;;;;;;14.53;4.63;;;6.00;82.80;;;;;;5093945;28;20044;-69
2021/03/28 02:40:14;;;;;;;;;;;6.00;82.90;;;;;;5093788;28;20298;-69
2021/03/28 02:43:12;;;;;;;22.20;5.27;;;6.00;83.20;;;;;;5093696;28;19919;-69
2021/03/28 02:45:43;;;;;;;14.77;4.23;;;6.00;82.90;;;;;;5092776;28;20294;-69
2021/03/28 02:48:39;;;;;;;15.48;4.68;;;6.00;82.80;;;;;;5093537;28;20301;-69
2021/03/28 02:51:12;;;;;;;14.83;4.40;;;6.00;83.00;;;;;;5093608;28;20131;-69
2021/03/28 02:54:05;;;;;;;19.87;5.23;;;6.00;83.00;;;;;;5092642;28;20321;-69
2021/03/28 02:56:36;;;;;;;22.87;5.43;;;6.00;83.50;;;;;;5093944;28;20298;-69
2021/03/28 02:59:35;;;;;;;17.05;5.25;;;6.00;83.20;;;;;;5093462;28;20294;-69
2021/03/28 03:02:28;;;;;;;14.77;5.47;;;6.00;83.40;;;;;;5093265;28;20052;-69
2021/03/28 03:05:11;;;;;;;19.33;5.43;;;6.00;83.10;;;;;;5093100;28;20302;-69
2021/03/28 03:07:59;;;;;;;19.07;5.37;;;6.10;83.30;;;;;;5092608;28;20333;-69
2021/03/28 03:10:46;;;;;;;16.80;5.80;;;6.00;83.40;;;;;;5093496;28;20327;-69
2021/03/28 03:13:40;;;;;;;17.13;5.53;;;6.00;84.30;;;;;;5093156;28;20306;-69
2021/03/28 03:16:22;;;;;;;20.07;5.97;;;6.00;83.50;;;;;;5093138;28;20678;-69
2021/03/28 03:19:18;;;;;;;19.75;5.32;;;6.00;83.60;;;;;;5092636;28;20305;-69
2021/03/28 03:22:37;;;;;;;22.73;6.90;;;6.00;83.70;;;;;;5092366;28;20072;-69
2021/03/28 03:25:50;;;;;;;19.20;5.70;;;6.00;83.70;;;;;;5092861;28;20302;-69
2021/03/28 03:28:37;;;;;;;19.47;4.90;;;6.00;83.90;;;;;;4990533;28;20297;-69
2021/03/28 03:31:41;;;;;;;17.57;5.37;;;6.00;83.60;;;;;;4990925;28;20743;-70
2021/03/28 03:34:28;;;;;;;20.60;5.33;;;6.00;83.60;;;;;;5086125;28;20324;-69
2021/03/28 03:37:21;;;;;;;14.03;4.83;;;6.00;83.70;;;;;;5091743;28;20294;-69
2021/03/28 03:39:56;;;;;;;17.93;5.80;;;6.10;83.70;;;;;;5092304;28;20306;-69
2021/03/28 03:42:37;;;;;;;14.23;4.70;;;6.00;83.60;;;;;;5092007;28;20365;-69
2021/03/28 03:45:26;;;;;;;14.60;4.50;;;6.00;84.00;;;;;;5092069;28;20338;-69
2021/03/28 03:48:09;;;;;;;17.40;5.00;;;6.00;84.00;;;;;;5092121;28;20300;-69
2021/03/28 03:50:47;;;;;;;21.03;6.43;;;6.00;83.90;;;;;;5091543;28;20301;-70
2021/03/28 03:53:41;;;;;;;14.63;5.77;;;6.10;83.90;;;;;;5092633;28;20342;-69
2021/03/28 03:56:17;;;;;;;16.37;5.23;;;6.00;84.10;;;;;;5091595;28;20309;-69
2021/03/28 03:58:58;;;;;;;18.13;5.50;;;6.00;84.10;;;;;;5092441;28;20302;-69
2021/03/28 04:01:28;;;;;;;20.17;5.20;;;6.10;85.10;;;;;;5092544;28;20351;-69
2021/03/28 04:04:13;;;;;;;18.53;5.03;;;6.00;84.10;;;;;;5091115;28;20044;-69
2021/03/28 04:07:02;;;;;;;13.33;4.73;;;6.10;84.40;;;;;;5092085;28;20306;-69
2021/03/28 04:09:43;;;;;;;15.50;5.37;;;6.10;84.60;;;;;;5092368;28;20343;-69
2021/03/28 04:12:18;;;;;;;14.40;4.90;;;6.10;84.40;;;;;;5092054;28;20309;-69
2021/03/28 04:15:15;;;;;;;18.50;5.03;;;6.10;84.60;;;;;;5091816;28;20415;-69
2021/03/28 04:17:56;;;;;;;23.60;4.93;;;6.10;84.90;;;;;;5091047;28;20317;-69
2021/03/28 04:20:52;;;;;;;17.13;6.37;;;6.10;84.60;;;;;;5092113;28;20302;-69
2021/03/28 04:23:30;;;;;;;13.50;5.23;;;6.10;84.70;;;;;;5091983;28;20332;-69
2021/03/28 04:26:31;;;;;;;18.37;5.60;;;6.10;84.70;;;;;;5090634;28;20347;-69
2021/03/28 04:29:08;;;;;;;16.73;5.20;;;6.10;85.00;;;;;;5091472;28;20794;-69
2021/03/28 04:32:08;;;;;;;19.20;5.43;;;6.00;84.70;;;;;;5090996;28;20302;-69
2021/03/28 04:34:39;;;;;;;15.33;5.10;;;6.00;85.30;;;;;;5091573;28;20317;-69
2021/03/28 04:37:35;;;;;;;14.55;5.50;;;6.00;85.00;;;;;;5092817;28;20314;-68
2021/03/28 04:40:28;;;;;;;18.77;5.47;;;5.90;85.20;;;;;;5101771;28;20044;-69
2021/03/28 04:43:23;;;;;;;15.53;5.03;;;5.90;85.50;;;;;;5101355;28;20759;-68
2021/03/28 04:45:58;;;;;;;15.73;5.77;;;5.80;85.50;;;;;;5060890;28;20287;-69
2021/03/28 04:48:43;;;;;;;15.93;4.97;;;5.80;85.70;;;;;;5060096;28;20703;-69
2021/03/28 04:51:32;;;;;;;17.63;5.83;;;5.80;85.70;;;;;;5060810;28;20345;-69
2021/03/28 04:54:19;;;;;;;12.03;4.97;;;5.80;85.80;;;;;;5049171;28;20338;-69
2021/03/28 04:57:13;;;;;;;14.67;4.83;;;5.80;86.00;;;;;;5057879;28;20820;-69
2021/03/28 05:00:01;;;;;;;17.97;5.87;;;5.70;85.90;;;;;;5061173;28;20315;-69
2021/03/28 05:02:42;;;;;;;16.40;5.20;;;5.70;86.10;;;;;;5061946;28;20302;-69
2021/03/28 05:05:37;;;;;;;19.27;5.40;;;5.70;86.40;;;;;;5061835;28;20295;-69
2021/03/28 05:08:15;;;;;;;18.87;6.33;;;5.70;86.40;;;;;;5060533;28;20411;-69
2021/03/28 05:11:20;;;;;;;17.87;6.90;;;5.70;86.50;;;;;;5061814;28;20298;-69
2021/03/28 05:14:30;;;;;;;18.60;5.43;;;5.70;86.70;;;;;;5060406;28;20372;-69
2021/03/28 05:17:02;;;;;;;15.27;5.40;;;5.70;86.70;;;;;;5059584;28;20310;-69
2021/03/28 05:19:54;;;;;;;18.30;5.93;;;5.70;86.60;;;;;;5059832;28;20296;-70
2021/03/28 05:22:38;;;;;;;12.73;5.60;;;5.70;86.70;;;;;;5069051;28;20413;-69
2021/03/28 05:25:12;;;;;;;17.30;4.73;;;5.70;87.00;;;;;;5070944;28;20094;-69
2021/03/28 05:27:59;;;;;;;22.03;6.63;;;5.70;86.60;;;;;;5069964;28;20581;-69
2021/03/28 05:31:02;;;;;;;13.13;5.07;;;5.80;86.60;;;;;;5071036;28;20388;-69
2021/03/28 05:33:52;;;;;;;17.87;5.57;;;5.80;86.70;;;;;;5071099;28;20350;-69
2021/03/28 05:36:24;;;;;;;18.87;7.07;;;5.80;86.80;;;;;;5070353;28;20310;-69
2021/03/28 05:39:27;;;;;;;15.00;5.63;;;5.80;87.00;;;;;;5070305;28;20320;-69
2021/03/28 05:42:17;;;;;;;22.07;6.57;;;5.80;87.20;;;;;;5069820;28;20325;-69
2021/03/28 05:45:19;;;;;;;17.10;5.40;;;5.90;87.00;;;;;;5096892;28;20298;-69
2021/03/28 05:47:59;;;;;;;14.48;5.55;;;6.00;86.70;;;;;;5111144;28;20293;-69
2021/03/28 05:50:50;;;;;;;18.87;5.63;;;6.00;86.70;;;;;;5110675;28;20434;-68
2021/03/28 05:53:50;;;;;;;17.50;6.65;;;6.00;86.80;;;;;;5111266;28;20293;-69
2021/03/28 05:56:54;;;;;;;14.47;5.70;;;6.00;86.60;;;;;;5110724;28;20051;-69
2021/03/28 05:59:31;;;;;;;18.63;5.83;;;6.10;86.70;;;;;;5111458;28;20380;-69
2021/03/28 06:02:15;;;;;;;14.47;5.67;;;6.10;86.50;;;;;;5110866;28;20293;-69
2021/03/28 06:05:02;;;;;;;21.13;6.00;;;6.20;86.70;;;;;;5111050;28;20308;-69
2021/03/28 06:08:05;;;;;;;18.07;5.30;;;6.20;86.60;;;;;;5111281;28;20304;-68
2021/03/28 06:10:55;;;;;;;17.73;5.37;;;6.30;86.60;;;;;;5114318;28;20337;-69
2021/03/28 06:13:46;;;;;;;20.40;6.00;;;6.40;86.50;;;;;;5114830;28;20309;-68
2021/03/28 06:16:30;;;;;;;14.00;4.93;;;6.50;86.20;;;;;;5114603;28;20631;-68
2021/03/28 06:19:10;;;;;;;14.50;5.33;;;6.50;86.00;;;;;;5114301;28;20297;-69
2021/03/28 06:22:00;;;;;;;13.77;5.60;;;6.60;86.10;;;;;;5114528;28;20297;-68
2021/03/28 06:24:41;;;;;;;16.07;5.83;;;6.70;86.00;;;;;;5113890;28;20354;-69
2021/03/28 06:27:55;;;;;;;10.97;4.90;;;6.80;85.80;;;;;;5114102;28;20320;-69
2021/03/28 06:30:42;;;;;;;19.90;6.27;;;6.80;85.70;;;;;;5114384;28;20362;-69
2021/03/28 06:33:36;;;;;;;10.60;5.93;;;6.90;85.60;;;;;;5113946;28;20687;-69
2021/03/28 06:36:16;;;;;;;15.83;5.63;;;7.00;85.40;;;;;;5114098;28;20642;-69
2021/03/28 06:39:29;;;;;;;10.37;4.73;;;7.20;85.20;;;;;;5113218;28;20333;-69
2021/03/28 06:42:16;;;;;;;13.73;5.63;;;7.40;84.80;;;;;;5113768;28;20297;-69
2021/03/28 06:45:14;;;;;;;12.03;4.80;;;7.60;84.30;;;;;;5113055;28;20317;-69
2021/03/28 06:48:13;;;;;;;11.97;4.77;;;7.80;83.60;;;;;;5113668;28;20293;-68
2021/03/28 06:51:06;;;;;;;14.07;5.07;;;7.90;83.20;;;;;;5113684;28;20298;-68
2021/03/28 06:54:00;;;;;;;13.97;4.70;;;8.00;82.80;;;;;;5113168;28;20378;-68
2021/03/28 06:57:09;;;;;;;11.50;4.87;;;8.10;82.70;;;;;;5114307;28;20385;-68
2021/03/28 06:59:53;;;;;;;13.83;4.67;;;8.20;82.60;;;;;;5113053;28;20301;-68
2021/03/28 07:02:27;;;;;;;23.93;4.93;;;8.20;82.60;;;;;;5113672;28;20293;-68
2021/03/28 07:05:26;;;;;;;13.73;4.67;;;8.30;82.60;;;;;;5113096;28;20650;-68
2021/03/28 07:08:19;;;;;;;12.97;4.37;;;8.30;82.40;;;;;;5109153;28;20294;-69
2021/03/28 07:11:20;;;;;;;10.13;3.90;;;8.40;82.10;;;;;;5103774;28;20653;-67
2021/03/28 07:14:08;;;;;;;13.27;3.63;;;8.50;81.40;;;;;;5109192;28;20817;-67
2021/03/28 07:17:12;;;;;;;9.33;3.77;;;8.60;81.20;;;;;;5113000;28;20297;-67
2021/03/28 07:19:41;;;;;;;16.17;4.13;;;8.70;80.90;;;;;;5111811;28;20351;-67
2021/03/28 07:22:31;;;;;;;15.43;3.80;;;8.80;80.90;;;;;;5113104;28;20302;-66
2021/03/28 07:25:08;;;;;;;11.00;3.13;;;8.90;80.60;;;;;;5112796;28;20774;-67
2021/03/28 07:28:10;;;;;;;15.07;3.87;;;8.90;80.60;;;;;;5112708;28;20411;-68
2021/03/28 07:31:13;;;;;;;10.32;3.15;;;8.90;80.10;;;;;;5113059;28;20335;-67
2021/03/28 07:33:52;;;;;;;16.73;4.90;;;8.90;79.90;;;;;;5112566;28;20054;-67
2021/03/28 07:36:32;;;;;;;12.20;3.20;;;9.00;80.00;;;;;;5104435;28;20329;-67
2021/03/28 07:39:23;;;;;;;12.20;3.50;;;9.00;79.80;;;;;;5112832;28;20306;-67
2021/03/28 07:42:10;;;;;;;10.77;3.03;;;9.10;79.60;;;;;;5097104;28;20302;-68
2021/03/28 07:44:53;;;;;;;10.73;2.93;;;9.20;79.70;;;;;;5092243;28;20309;-68
2021/03/28 07:47:56;;;;;;;14.10;2.90;;;9.20;79.10;;;;;;5092692;28;20294;-68
2021/03/28 07:50:36;;;;;;;15.67;3.60;;;9.30;79.20;;;;;;5093874;28;20286;-68
2021/03/28 07:53:29;;;;;;;10.23;3.03;;;9.40;79.20;;;;;;5108046;28;20350;-69
2021/03/28 07:56:38;;;;;;;11.80;2.70;;;9.50;79.00;;;;;;5100070;28;20314;-68
2021/03/28 07:59:30;;;;;;;13.00;3.20;;;9.60;78.40;;;;;;5100910;28;20302;-68
2021/03/28 08:02:33;;;;;;;13.07;3.53;;;9.60;78.10;;;;;;5062127;28;20294;-68
2021/03/28 08:05:23;;;;;;;11.67;2.93;;;9.60;78.10;;;;;;5103052;28;20109;-69
2021/03/28 08:08:04;;;;;;;13.53;3.30;;;9.70;78.20;;;;;;5102200;28;20301;-69
2021/03/28 08:11:03;;;;;;;9.88;2.65;;;9.80;77.50;;;;;;5101043;28;20293;-68
2021/03/28 08:13:59;;;;;;;12.40;3.13;;;9.80;76.90;;;;;;5101458;28;20055;-68
2021/03/28 08:17:01;;;;;;;14.77;3.83;;;9.80;77.30;;;;;;5102204;28;20293;-68
2021/03/28 08:20:07;;;;;;;14.10;3.00;;;9.80;77.50;;;;;;5100983;28;20298;-68
2021/03/28 08:23:12;;;;;;;9.07;2.47;;;10.00;77.40;;;;;;5101713;28;20709;-69
2021/03/28 08:25:56;;;;;;;8.73;2.87;;;10.10;77.40;;;;;;5101841;28;20294;-68
2021/03/28 08:28:54;;;;;;;11.30;2.83;;;10.50;77.30;;;;;;5102984;28;20376;-68
2021/03/28 08:31:25;;;;;;;11.43;2.70;;;10.90;75.90;;;;;;5101164;28;20055;-68
2021/03/28 08:34:45;;;;;;;11.20;2.15;;;11.10;75.40;;;;;;5104404;28;20043;-69
2021/03/28 08:37:53;;;;;;;10.07;2.17;;;11.10;74.70;;;;;;5027924;28;20121;-68
2021/03/28 08:40:21;;;;;;;10.33;2.70;;;11.10;74.30;;;;;;5101701;28;20048;-68
2021/03/28 08:43:02;;;;;;;8.77;2.83;;;11.00;74.10;;;;;;5101955;28;20051;-68
2021/03/28 08:46:05;;;;;;;9.35;2.10;;;11.10;74.10;;;;;;5101721;28;20728;-69
2021/03/28 08:49:05;;;;;;;13.63;3.13;;;11.10;72.40;;;;;;5102218;28;20075;-67
2021/03/28 08:51:59;;;;;;;7.00;2.40;;;11.20;73.30;;;;;;5101680;28;20043;-68
2021/03/28 08:54:41;;;;;;;11.97;2.57;;;11.30;72.30;;;;;;5106353;28;20052;-68
2021/03/28 08:57:25;;;;;;;;;;;11.50;71.60;;;;;;5102352;28;20051;-67
2021/03/28 09:00:04;;;;;;;8.80;2.17;;;11.70;69.70;;;;;;5101421;28;19927;-67
2021/03/28 09:03:14;;;;;;;11.43;2.30;;;11.90;70.80;;;;;;5102160;28;20105;-68
2021/03/28 09:05:49;;;;;;;11.70;2.83;;;12.10;68.30;;;;;;5082706;28;20051;-68
2021/03/28 09:08:22;;;;;;;7.93;2.50;;;12.30;69.60;;;;;;5102401;28;20052;-68
2021/03/28 09:11:25;;;;;;;8.03;2.40;;;12.60;68.50;;;;;;5098889;28;20120;-67
2021/03/28 09:14:42;;;;;;;9.00;2.50;;;12.70;64.90;;;;;;5100913;28;20040;-68
2021/03/28 09:17:23;;;;;;;9.47;2.67;;;12.70;64.40;;;;;;4999334;28;20065;-67
2021/03/28 09:19:48;;;;;;;11.93;2.80;;;12.70;66.20;;;;;;5100763;28;20071;-67
2021/03/28 09:22:20;;;;;;;7.37;1.90;;;12.60;65.80;;;;;;5099661;28;20759;-67
2021/03/28 09:25:13;;;;;;;6.83;2.00;;;12.60;65.30;;;;;;5082506;28;20040;-67
2021/03/28 09:27:59;;;;;;;10.53;2.37;;;12.60;62.50;;;;;;5090567;28;20101;-68
2021/03/28 09:30:39;;;;;;;10.67;2.50;;;12.60;64.40;;;;;;5091352;28;20175;-68
2021/03/28 09:33:24;;;;;;;10.07;1.87;;;12.60;63.70;;;;;;5090744;28;20260;-67
2021/03/28 09:36:27;;;;;;;13.33;7.57;;;12.50;62.80;;;;;;5090650;28;20052;-67
2021/03/28 09:39:29;;;;;;;6.27;2.10;;;12.60;62.30;;;;;;5090359;28;20521;-67
2021/03/28 09:42:28;;;;;;;7.38;2.22;;;12.60;61.60;;;;;;5089852;28;20206;-67
2021/03/28 09:44:53;;;;;;;8.20;2.33;;;12.60;61.90;;;;;;5094055;28;20060;-67
2021/03/28 09:47:34;;;;;;;10.60;2.80;;;12.70;62.70;;;;;;5094060;28;20093;-67
2021/03/28 09:50:24;;;;;;;9.07;2.17;;;12.80;61.70;;;;;;5094543;28;20130;-67
2021/03/28 09:53:25;;;;;;;10.93;2.80;;;12.80;60.60;;;;;;5094127;28;20048;-67
2021/03/28 09:56:27;;;;;;;8.32;2.20;;;12.70;59.80;;;;;;5093581;28;20094;-67
2021/03/28 09:59:21;;;;;;;8.27;2.47;;;12.60;61.10;;;;;;5093962;28;20109;-67
2021/03/28 10:01:59;;;;;;;6.30;2.40;;;12.60;61.60;;;;;;5093259;28;20496;-68
2021/03/28 10:04:47;;;;;;;9.57;2.30;;;12.60;62.70;;;;;;5094455;28;20052;-68
2021/03/28 10:07:14;;;;;;;8.20;2.40;;;12.60;62.40;;;;;;5094368;28;20075;-68
2021/03/28 10:10:02;;;;;;;8.97;2.57;;;12.50;62.80;;;;;;5093500;28;20056;-68
2021/03/28 10:12:51;;;;;;;9.10;2.33;;;12.40;63.10;;;;;;5096844;28;20051;-67
2021/03/28 10:15:24;;;;;;;10.50;2.60;;;12.30;63.50;;;;;;5105336;28;20052;-68
2021/03/28 10:18:14;;;;;;;8.90;1.93;;;12.30;63.30;;;;;;5103449;28;20389;-67
2021/03/28 10:20:58;;;;;;;7.30;2.03;;;12.30;62.10;;;;;;5102763;28;20484;-67
2021/03/28 10:24:01;;;;;;;9.40;2.20;;;12.20;63.10;;;;;;5097418;28;20101;-68
2021/03/28 10:26:54;;;;;;;7.20;2.43;;;12.30;62.50;;;;;;5098771;28;20044;-69
2021/03/28 10:29:51;;;;;;;9.77;2.30;;;12.30;63.00;;;;;;5098466;28;20044;-67
2021/03/28 10:32:32;;;;;;;8.93;2.13;;;12.40;63.20;;;;;;5101255;28;20075;-67
2021/03/28 10:35:39;;;;;;;10.03;2.83;;;12.40;64.20;;;;;;5097743;28;20044;-69
2021/03/28 10:38:29;;;;;;;9.63;2.77;;;12.30;65.30;;;;;;5035745;28;20661;-67
2021/03/28 10:41:18;;;;;;;8.70;2.50;;;12.30;66.50;;;;;;5034739;28;20052;-67
2021/03/28 10:44:14;;;;;;;9.27;3.03;;;12.20;66.80;;;;;;5091784;28;20051;-67
2021/03/28 10:46:55;;;;;;;9.50;2.77;;;12.10;67.70;;;;;;5100596;28;20416;-69
2021/03/28 10:49:32;;;;;;;8.75;2.72;;;12.00;68.30;;;;;;5101670;28;20039;-68
2021/03/28 10:52:31;;;;;;;10.00;2.97;;;12.00;68.80;;;;;;5100981;28;20044;-67
2021/03/28 10:55:02;;;;;;;9.47;3.10;;;11.90;70.00;;;;;;5103734;28;20040;-68
2021/03/28 10:58:13;;;;;;;7.50;2.65;;;11.80;70.00;;;;;;5095637;28;20052;-67
2021/03/28 11:01:03;;;;;;;10.80;2.77;;;11.70;71.00;;;;;;5100639;28;20104;-68
2021/03/28 11:03:56;;;;;;;11.67;2.43;;;11.60;70.70;;;;;;5099757;28;20044;-68
2021/03/28 11:06:50;;;;;;;16.37;2.63;;;11.50;71.00;;;;;;5100637;28;20135;-68
2021/03/28 11:09:33;;;;;;;9.63;2.70;;;11.50;71.60;;;;;;5100127;28;20097;-68
2021/03/28 11:12:17;;;;;;;7.53;2.30;;;11.50;71.60;;;;;;5099705;28;20063;-67
2021/03/28 11:15:10;;;;;;;9.13;2.70;;;11.50;72.10;;;;;;5100583;28;20132;-68
2021/03/28 11:18:20;;;;;;;8.63;2.73;;;11.50;71.80;;;;;;5100171;28;20050;-67
2021/03/28 11:20:52;;;;;;;8.87;2.77;;;11.50;72.10;;;;;;5097432;28;20063;-67
2021/03/28 11:23:38;;;;;;;10.30;2.30;;;11.50;72.00;;;;;;5098818;28;20047;-67
2021/03/28 11:26:35;;;;;;;8.93;2.90;;;11.50;72.20;;;;;;5099688;28;20898;-66
2021/03/28 11:29:34;;;;;;;11.77;2.93;;;11.50;73.00;;;;;;5100052;28;20073;-67
2021/03/28 11:32:17;;;;;;;11.57;3.43;;;11.50;72.50;;;;;;5101198;28;20044;-69
2021/03/28 11:35:11;;;;;;;14.90;3.23;;;11.50;72.50;;;;;;5099065;28;20055;-68
2021/03/28 11:38:13;;;;;;;9.17;3.53;;;11.60;72.80;;;;;;5099477;28;20055;-67
2021/03/28 11:40:40;;;;;;;9.63;3.63;;;11.60;72.20;;;;;;5099061;28;20133;-68
2021/03/28 11:43:08;;;;;;;10.13;3.00;;;11.50;72.50;;;;;;5100039;28;20052;-67
2021/03/28 11:45:36;;;;;;;15.23;3.13;;;11.40;72.90;;;;;;5098004;28;20072;-67
2021/03/28 11:48:06;;;;;;;11.00;3.03;;;11.40;73.00;;;;;;5099694;28;20063;-67
2021/03/28 11:50:40;;;;;;;11.17;3.50;;;11.30;73.40;;;;;;5099038;28;20043;-68
2021/03/28 11:53:23;;;;;;;11.73;3.30;;;11.20;74.40;;;;;;5098149;28;20058;-66
2021/03/28 11:55:58;;;;;;;10.10;2.80;;;11.20;75.20;;;;;;5097154;28;20040;-67
2021/03/28 11:58:38;;;;;;;11.63;3.20;;;11.20;74.90;;;;;;5097498;28;20131;-66
2021/03/28 12:01:05;;;;;;;9.87;3.13;;;11.20;75.50;;;;;;5094095;28;20496;-67
2021/03/28 12:03:37;;;;;;;9.07;2.70;;;11.10;75.20;;;;;;5100840;28;20698;-66
2021/03/28 12:06:17;;;;;;;8.82;2.97;;;11.10;75.90;;;;;;5099059;28;20044;-67
2021/03/28 12:08:45;;;;;;;12.53;3.40;;;11.00;76.30;;;;;;5093087;28;20055;-67
2021/03/28 12:11:44;;;;;;;9.90;3.07;;;11.00;76.70;;;;;;5088161;28;20044;-67
2021/03/28 12:14:12;;;;;;;13.23;5.90;;;10.90;78.00;;;;;;5088082;28;20576;-68
2021/03/28 12:17:02;;;;;;;15.80;4.00;;;10.90;77.50;;;;;;5101870;28;20050;-68
2021/03/28 12:19:43;;;;;;;9.80;3.40;;;10.90;78.00;;;;;;5108594;28;20599;-67
2021/03/28 12:22:20;;;;;;;14.70;4.00;;;10.90;77.90;;;;;;5107639;28;20126;-67
2021/03/28 12:24:56;;;;;;;9.27;3.17;;;10.80;78.00;;;;;;5107874;28;20301;-68
2021/03/28 12:27:34;;;;;;;9.10;3.30;;;10.80;78.40;;;;;;5109149;28;20836;-67
2021/03/28 12:30:02;;;;;;;11.27;4.10;;;10.80;78.80;;;;;;5108083;28;20050;-67
2021/03/28 12:32:50;;;;;;;15.80;3.30;;;10.80;79.10;;;;;;5108807;28;20071;-67
2021/03/28 12:35:22;;;;;;;15.17;3.90;;;10.80;80.20;;;;;;5108216;28;20081;-67
2021/03/28 12:37:51;;;;;;;13.07;3.80;;;10.80;79.80;;;;;;5107102;28;20143;-67
2021/03/28 12:40:31;;;;;;;11.43;3.30;;;10.70;79.90;;;;;;5108820;28;20086;-67
2021/03/28 12:42:58;;;;;;;16.30;3.77;;;10.60;80.50;;;;;;5108025;28;20488;-68
2021/03/28 12:45:26;;;;;;;13.37;4.13;;;10.60;81.00;;;;;;5107378;28;20313;-68
2021/03/28 12:47:56;;;;;;;12.20;3.77;;;10.60;81.50;;;;;;5107766;28;20040;-68
2021/03/28 12:50:26;;;;;;;11.00;3.43;;;10.50;82.60;;;;;;5108221;28;20452;-67
2021/03/28 12:53:02;;;;;;;12.47;4.17;;;10.50;81.60;;;;;;5107871;28;20058;-67
2021/03/28 12:55:30;;;;;;;12.50;4.27;;;10.50;82.10;;;;;;5107940;28;20460;-68
2021/03/28 12:57:57;;;;;;;13.53;3.83;;;10.50;82.30;;;;;;5107001;28;20079;-68
2021/03/28 13:00:50;;;;;;;16.20;3.77;;;10.50;82.50;;;;;;5108793;28;20074;-68
2021/03/28 13:03:33;;;;;;;15.63;4.70;;;10.40;83.60;;;;;;5108424;28;20051;-68
2021/03/28 13:06:37;;;;;;;12.60;4.50;;;10.40;83.10;;;;;;5107344;28;20063;-67
2021/03/28 13:09:18;;;;;;;20.17;4.83;;;10.40;82.90;;;;;;5108433;28;20054;-68
2021/03/28 13:11:57;;;;;;;15.40;3.78;;;10.40;82.30;;;;;;5093614;28;20047;-67
2021/03/28 13:14:41;;;;;;;15.20;4.10;;;10.40;82.30;;;;;;5098219;28;20147;-68
2021/03/28 13:17:13;;;;;;;13.77;3.57;;;10.40;82.40;;;;;;5096361;28;20304;-67
2021/03/28 13:19:48;;;;;;;14.13;3.83;;;10.30;82.20;;;;;;5098648;28;20101;-68
2021/03/28 13:22:38;;;;;;;12.10;3.97;;;10.30;82.30;;;;;;5103056;28;20046;-67
2021/03/28 13:25:16;;;;;;;18.90;4.77;;;10.40;82.20;;;;;;5102550;28;20050;-68
2021/03/28 13:27:42;;;;;;;12.63;4.00;;;10.40;82.20;;;;;;5102031;28;20044;-68
2021/03/28 13:30:22;;;;;;;15.73;4.63;;;10.40;82.30;;;;;;5100733;28;20043;-68
2021/03/28 13:32:48;;;;;;;14.33;4.47;;;10.40;82.50;;;;;;5101351;28;20040;-68
2021/03/28 13:35:20;;;;;;;15.43;4.93;;;10.40;82.40;;;;;;5101517;28;20314;-67
2021/03/28 13:37:55;;;;;;;11.45;3.42;;;10.30;82.80;;;;;;5100189;28;20294;-68
2021/03/28 13:40:26;;;;;;;17.90;4.30;;;10.30;82.80;;;;;;5100305;28;20118;-68
2021/03/28 13:43:01;;;;;;;11.88;3.67;;;10.30;82.60;;;;;;5100493;28;20297;-68
2021/03/28 13:45:38;;;;;;;14.57;4.13;;;10.30;82.30;;;;;;5100496;28;20480;-66
2021/03/28 13:48:07;;;;;;;11.10;4.03;;;10.30;82.60;;;;;;5099291;28;20317;-67
2021/03/28 13:50:50;;;;;;;11.77;3.70;;;10.30;83.50;;;;;;5101438;28;20035;-67
2021/03/28 13:53:16;;;;;;;18.87;5.87;;;10.30;82.70;;;;;;5101349;28;20102;-67
2021/03/28 13:55:51;;;;;;;17.40;3.60;;;10.30;82.60;;;;;;5099047;28;20808;-67
2021/03/28 13:58:17;;;;;;;13.60;3.83;;;10.40;82.40;;;;;;5099353;28;20066;-66
2021/03/28 14:00:45;;;;;;;15.93;3.87;;;10.40;82.10;;;;;;5101671;28;20484;-67
2021/03/28 14:03:35;;;;;;;12.13;3.40;;;10.40;81.90;;;;;;5100088;28;20047;-67
2021/03/28 14:06:38;;;;;;;16.50;4.20;;;10.40;82.00;;;;;;5101284;28;20566;-67
2021/03/28 14:09:03;;;;;;;20.20;4.20;;;10.40;81.80;;;;;;5110045;28;20048;-67
2021/03/28 14:11:56;;;;;;;12.47;3.47;;;10.50;81.60;;;;;;5111530;28;20564;-67
2021/03/28 14:14:33;;;;;;;13.50;4.03;;;10.50;81.70;;;;;;5111935;28;20830;-67
2021/03/28 14:17:19;;;;;;;15.07;3.27;;;10.50;81.50;;;;;;5110686;28;20047;-67
2021/03/28 14:19:46;;;;;;;14.87;3.77;;;10.50;81.40;;;;;;5110885;28;20055;-68
2021/03/28 14:22:12;;;;;;;10.43;3.50;;;10.60;81.30;;;;;;5111121;28;20050;-67